Time;durP1;ratioP1;P1;durP2;ratioP2;P2;SDS_P1;SDS_P2;PMS_P1;PMS_P2;Temp;Humidity;BMP_temperature;BMP_pressure;BME280_temperature;BME280_humidity;BME280_pressure;Samples;Min_cycle;Max_cycle;Signal;HPM_P1;HPM_P2
2024/02/28 00:02:40;;;;;;;28.83;17.80;;;;;;;14.23;93.38;99949.50;5092814;28;20059;-76
2024/02/28 00:05:45;;;;;;;28.67;18.33;;;;;;;13.98;94.56;99945.06;5081053;28;20059;-77
2024/02/28 00:08:50;;;;;;;34.80;20.92;;;;;;;13.87;95.74;99934.63;5093413;28;20410;-81
2024/02/28 00:11:55;;;;;;;33.63;21.42;;;;;;;13.93;94.91;99939.31;5094010;28;20418;-79
2024/02/28 00:14:59;;;;;;;28.90;18.67;;;;;;;13.92;95.20;99945.75;5080968;28;20395;-80
2024/02/28 00:18:04;;;;;;;31.60;19.75;;;;;;;14.05;94.38;99953.34;5092075;28;20119;-80
2024/02/28 00:21:08;;;;;;;31.13;17.77;;;;;;;13.85;95.32;99955.50;5093683;28;20394;-79
2024/02/28 00:24:12;;;;;;;29.70;18.38;;;;;;;13.89;95.29;99946.09;5093842;28;20044;-80
2024/02/28 00:27:17;;;;;;;25.73;17.10;;;;;;;13.94;95.12;99949.13;5097384;28;20047;-81
2024/02/28 00:30:21;;;;;;;30.95;19.50;;;;;;;14.10;94.21;99954.53;5097848;28;20391;-86
2024/02/28 00:33:26;;;;;;;28.58;17.65;;;;;;;13.98;94.83;99955.88;5097938;28;20047;-87
2024/02/28 00:36:30;;;;;;;26.33;17.83;;;;;;;14.00;94.99;99955.72;5097814;28;20051;-84
2024/02/28 00:39:35;;;;;;;27.70;17.58;;;;;;;13.85;95.27;99958.19;5097714;28;20501;-84
2024/02/28 00:42:39;;;;;;;29.60;17.83;;;;;;;13.73;95.59;99946.03;5097572;28;20059;-86
2024/02/28 00:45:44;;;;;;;32.15;18.38;;;;;;;13.83;95.47;99965.63;5097716;28;20047;-86
2024/02/28 00:48:48;;;;;;;26.63;17.17;;;;;;;13.70;95.66;99952.59;5073221;28;20067;-86
2024/02/28 00:51:52;;;;;;;26.77;17.08;;;;;;;13.79;95.40;99955.31;5115430;28;20070;-85
2024/02/28 00:54:57;;;;;;;26.33;16.70;;;;;;;13.70;95.91;99971.47;5117826;28;20042;-85
2024/02/28 00:58:02;;;;;;;29.40;18.42;;;;;;;13.79;95.26;99972.34;5117587;28;20047;-83
2024/02/28 01:01:07;;;;;;;28.13;18.33;;;;;;;13.77;95.47;99968.97;5117597;28;20062;-86
2024/02/28 01:04:11;;;;;;;28.80;17.40;;;;;;;13.62;95.85;99958.00;5117501;28;20046;-87
2024/02/28 01:07:16;;;;;;;26.33;16.17;;;;;;;13.68;96.01;99960.00;5117617;28;20059;-87
2024/02/28 01:10:21;;;;;;;26.75;16.95;;;;;;;13.70;95.72;99959.88;5117763;28;20058;-87
2024/02/28 01:13:25;;;;;;;24.92;15.85;;;;;;;13.64;96.36;99969.44;5117789;28;20055;-87
2024/02/28 01:16:30;;;;;;;24.40;16.27;;;;;;;13.75;96.04;99972.84;5117575;28;20527;-81
2024/02/28 01:19:34;;;;;;;23.95;16.88;;;;;;;13.85;95.62;99979.78;5117040;28;20051;-81
2024/02/28 01:22:39;;;;;;;27.33;16.75;;;;;;;13.82;95.48;99988.22;5117104;28;20050;-83
2024/02/28 01:25:43;;;;;;;24.55;16.25;;;;;;;13.77;95.22;99987.03;5117095;28;20059;-81
2024/02/28 01:28:51;;;;;;;24.40;16.75;;;;;;;13.77;95.51;99989.72;5116887;28;20402;-85
2024/02/28 01:31:56;;;;;;;23.40;15.45;;;;;;;13.69;95.90;99994.09;5117457;28;20054;-88
2024/02/28 01:35:03;;;;;;;27.70;16.40;;;;;;;13.98;95.07;99982.84;5117006;28;20066;-85
2024/02/28 01:38:08;;;;;;;25.10;15.35;;;;;;;13.90;94.57;99990.91;5115596;28;20050;-85
2024/02/28 01:41:12;;;;;;;24.80;15.82;;;;;;;14.00;94.84;99990.81;5117182;28;20046;-86
2024/02/28 01:44:16;;;;;;;26.75;17.70;;;;;;;13.99;93.83;99997.19;5116544;28;20046;-84
2024/02/28 01:47:21;;;;;;;27.67;16.63;;;;;;;14.13;93.64;99997.41;5116787;28;20480;-84
2024/02/28 01:50:25;;;;;;;28.17;16.38;;;;;;;14.13;93.00;100004.63;5116133;28;20395;-87
2024/02/28 01:53:30;;;;;;;26.20;16.27;;;;;;;14.17;93.14;100009.53;5116780;28;20044;-86
2024/02/28 01:56:37;;;;;;;28.10;16.67;;;;;;;14.25;92.58;100014.97;5116618;28;20066;-86
2024/02/28 01:59:42;;;;;;;29.42;16.35;;;;;;;14.27;93.00;100015.63;5104051;28;20051;-85
2024/02/28 02:02:47;;;;;;;29.60;16.73;;;;;;;14.33;92.36;100014.16;5116460;28;20048;-84
2024/02/28 02:05:52;;;;;;;28.17;16.95;;;;;;;14.25;92.41;100016.81;5116222;28;20035;-83
2024/02/28 02:08:56;;;;;;;28.05;17.35;;;;;;;14.20;92.80;100020.00;5103587;28;20055;-84
2024/02/28 02:12:02;;;;;;;29.38;17.05;;;;;;;14.18;92.82;100010.38;5116204;28;20406;-84
2024/02/28 02:15:06;;;;;;;29.95;18.40;;;;;;;14.15;93.17;100011.56;5115350;28;20047;-85
2024/02/28 02:18:11;;;;;;;31.30;18.63;;;;;;;14.25;93.58;100006.00;5115387;28;20043;-86
2024/02/28 02:21:21;;;;;;;31.15;16.90;;;;;;;14.31;92.64;100017.03;5103855;28;20048;-84
2024/02/28 02:24:26;;;;;;;28.70;17.65;;;;;;;14.20;93.06;100016.47;5116025;28;20040;-83
2024/02/28 02:27:30;;;;;;;30.30;17.63;;;;;;;14.30;92.59;100017.16;5095239;28;20048;-85
2024/02/28 02:30:35;;;;;;;30.80;17.25;;;;;;;14.52;91.79;100011.13;5095338;28;20487;-85
2024/02/28 02:33:39;;;;;;;29.50;17.17;;;;;;;14.33;92.19;100019.56;5082747;28;20044;-87
2024/02/28 02:36:44;;;;;;;31.35;18.92;;;;;;;14.36;92.42;100023.78;5095503;28;20040;-84
2024/02/28 02:39:48;;;;;;;28.45;16.63;;;;;;;14.64;91.06;100025.16;5095187;28;20044;-87
2024/02/28 02:42:53;;;;;;;33.72;19.13;;;;;;;14.44;91.90;100027.34;5095505;28;20048;-87
2024/02/28 02:45:57;;;;;;;32.47;19.27;;;;;;;14.39;92.42;100028.84;5095397;28;20048;-87
2024/02/28 02:49:01;;;;;;;28.42;16.60;;;;;;;14.59;91.79;100028.34;5094338;28;20048;-87
2024/02/28 02:52:06;;;;;;;26.67;16.35;;;;;;;14.60;91.82;100035.44;5094654;28;20056;-84
2024/02/28 02:55:10;;;;;;;27.98;16.55;;;;;;;14.62;91.34;100038.81;5094893;28;20390;-79
2024/02/28 02:58:15;;;;;;;30.25;17.55;;;;;;;14.69;90.84;100044.41;5095165;28;20044;-80
2024/02/28 03:01:20;;;;;;;28.40;16.98;;;;;;;14.32;92.19;100044.84;5094827;28;20386;-85
2024/02/28 03:04:24;;;;;;;28.20;17.02;;;;;;;14.37;92.90;100055.19;5082633;28;20047;-86
2024/02/28 03:07:28;;;;;;;26.48;16.65;;;;;;;14.51;92.19;100057.22;5094983;28;20048;-86
2024/02/28 03:10:33;;;;;;;27.42;16.23;;;;;;;14.37;92.36;100060.59;5082489;28;20383;-86
2024/02/28 03:13:37;;;;;;;27.67;16.35;;;;;;;14.13;93.53;100066.72;5095013;28;20040;-87
2024/02/28 03:16:42;;;;;;;28.20;16.77;;;;;;;14.11;94.62;100068.75;5095015;28;20044;-77
2024/02/28 03:19:47;;;;;;;30.33;17.95;;;;;;;14.13;93.68;100064.88;5094796;28;20490;-87
2024/02/28 03:22:51;;;;;;;28.58;16.63;;;;;;;14.64;91.40;100071.91;5094891;28;20048;-87
2024/02/28 03:25:56;;;;;;;26.67;16.13;;;;;;;14.52;92.09;100067.00;5094504;28;20386;-87
2024/02/28 03:29:00;;;;;;;26.08;16.48;;;;;;;14.49;92.53;100062.81;5082065;28;20048;-87
2024/02/28 03:32:05;;;;;;;28.63;17.08;;;;;;;14.56;91.82;100069.22;5094519;28;20048;-88
2024/02/28 03:35:10;;;;;;;27.13;17.27;;;;;;;14.40;91.83;100069.19;5094386;28;20065;-86
2024/02/28 03:38:14;;;;;;;25.92;17.05;;;;;;;14.54;92.32;100073.91;5094537;28;20040;-88
2024/02/28 03:41:18;;;;;;;29.58;17.23;;;;;;;14.18;93.44;100078.72;5081631;28;20040;-87
2024/02/28 03:44:23;;;;;;;27.27;17.52;;;;;;;14.23;94.00;100087.19;5082140;28;20048;-83
2024/02/28 03:47:27;;;;;;;33.80;18.98;;;;;;;14.46;92.55;100078.47;5093947;28;20044;-86
2024/02/28 03:50:32;;;;;;;28.80;17.13;;;;;;;14.06;93.58;100076.47;5094205;28;20048;-88
2024/02/28 03:53:36;;;;;;;30.17;17.17;;;;;;;14.07;93.65;100078.19;5094173;28;20052;-88
2024/02/28 03:56:41;;;;;;;37.53;18.85;;;;;;;13.85;95.09;100094.97;5094099;28;20383;-88
2024/02/28 03:59:46;;;;;;;35.15;18.42;;;;;;;14.04;93.65;100084.75;5093793;28;20040;-87
2024/02/28 04:02:50;;;;;;;28.42;16.85;;;;;;;14.35;93.54;100079.63;5081809;28;20047;-87
2024/02/28 04:05:55;;;;;;;31.08;17.33;;;;;;;14.19;93.12;100080.44;5093986;28;20044;-83
2024/02/28 04:09:00;;;;;;;29.45;17.50;;;;;;;14.14;93.87;100084.63;5093820;28;20052;-88
2024/02/28 04:12:04;;;;;;;29.35;16.85;;;;;;;14.20;93.82;100084.81;5093828;28;20040;-83
2024/02/28 04:15:11;;;;;;;29.88;15.70;;;;;;;14.36;93.39;100080.47;5093646;28;20040;-85
2024/02/28 04:18:16;;;;;;;27.15;14.18;;;;;;;14.06;94.03;100073.78;5093938;28;20118;-82
2024/02/28 04:21:20;;;;;;;26.55;13.93;;;;;;;13.74;95.47;100079.06;5093298;28;20044;-82
2024/02/28 04:24:25;;;;;;;24.88;12.75;;;;;;;13.81;95.48;100088.19;5093663;28;20064;-85
2024/02/28 04:27:29;;;;;;;27.13;12.05;;;;;;;13.66;95.32;100093.34;5080904;28;20044;-86
2024/02/28 04:30:34;;;;;;;21.63;11.70;;;;;;;13.42;96.06;100112.94;5093497;28;20040;-86
2024/02/28 04:33:38;;;;;;;25.08;11.15;;;;;;;13.38;96.86;100121.50;5093058;28;20358;-82
2024/02/28 04:36:43;;;;;;;23.40;11.80;;;;;;;13.42;96.65;100123.72;5093417;28;20056;-85
2024/02/28 04:39:47;;;;;;;24.48;11.40;;;;;;;13.92;94.69;100123.84;5093437;28;20048;-85
2024/02/28 04:42:52;;;;;;;25.00;11.70;;;;;;;13.80;93.50;100127.81;5093394;28;20048;-85
2024/02/28 04:45:56;;;;;;;20.52;10.85;;;;;;;13.55;94.78;100128.69;5093256;28;20044;-82
2024/02/28 04:49:01;;;;;;;33.80;12.68;;;;;;;13.62;94.96;100133.28;5093354;28;20052;-86
2024/02/28 04:52:06;;;;;;;23.83;12.27;;;;;;;13.80;94.49;100133.19;5092628;28;20048;-85
2024/02/28 04:55:10;;;;;;;24.73;12.75;;;;;;;13.98;93.86;100133.13;5093584;28;20047;-78
2024/02/28 04:58:13;;;;;;;;;;;;;;;13.86;94.23;100134.41;5101313;28;20044;-82
2024/02/28 05:01:18;;;;;;;22.42;10.48;;;;;;;13.64;95.36;100135.81;5113397;28;19915;-85
2024/02/28 05:04:23;;;;;;;21.73;10.75;;;;;;;13.58;95.62;100150.78;5113674;28;20044;-79
2024/02/28 05:07:27;;;;;;;25.75;11.32;;;;;;;13.56;95.61;100152.78;5113617;28;20430;-85
2024/02/28 05:10:34;;;;;;;25.55;11.18;;;;;;;13.55;95.71;100153.78;5113101;28;20051;-85
2024/02/28 05:13:38;;;;;;;21.15;10.57;;;;;;;13.63;95.73;100169.19;5117364;28;20459;-84
2024/02/28 05:16:43;;;;;;;23.63;10.40;;;;;;;13.30;96.57;100165.41;5115959;28;20047;-80
2024/02/28 05:19:48;;;;;;;22.48;11.45;;;;;;;13.46;96.35;100170.91;5116982;28;20047;-86
2024/02/28 05:22:52;;;;;;;22.98;12.30;;;;;;;13.36;95.87;100175.56;5117183;28;20159;-86
2024/02/28 05:25:57;;;;;;;26.63;12.02;;;;;;;13.39;96.12;100177.09;5117085;28;20048;-85
2024/02/28 05:29:04;;;;;;;16.85;10.90;;;;;;;13.36;94.84;100182.78;5116894;28;20423;-86
2024/02/28 05:32:09;;;;;;;17.92;10.25;;;;;;;13.52;94.43;100193.72;5116939;28;20454;-82
2024/02/28 05:35:14;;;;;;;21.13;9.88;;;;;;;13.65;94.19;100192.28;5117011;28;20052;-86
2024/02/28 05:38:19;;;;;;;15.98;9.15;;;;;;;13.46;93.86;100195.19;5116792;28;20075;-78
2024/02/28 05:41:23;;;;;;;16.77;8.82;;;;;;;13.39;94.88;100195.97;5104354;28;20054;-85
2024/02/28 05:44:28;;;;;;;17.52;9.45;;;;;;;13.37;94.65;100206.91;5116882;28;20043;-83
2024/02/28 05:47:33;;;;;;;19.60;9.68;;;;;;;13.55;94.71;100215.00;5116795;28;20043;-86
2024/02/28 05:50:37;;;;;;;17.83;9.90;;;;;;;13.74;93.90;100213.94;5116454;28;20058;-85
2024/02/28 05:53:43;;;;;;;19.02;9.93;;;;;;;13.78;93.88;100215.28;5115965;28;20051;-83
2024/02/28 05:56:47;;;;;;;16.65;9.95;;;;;;;14.02;93.18;100223.56;5116617;28;20517;-86
2024/02/28 05:59:51;;;;;;;16.63;8.63;;;;;;;14.27;92.04;100226.22;5103934;28;20054;-86
2024/02/28 06:02:56;;;;;;;20.33;10.23;;;;;;;13.75;93.88;100227.28;5116764;28;20489;-87
2024/02/28 06:06:04;;;;;;;18.85;9.63;;;;;;;13.72;94.46;100242.91;5116458;28;20036;-87
2024/02/28 06:09:09;;;;;;;15.85;10.25;;;;;;;13.41;95.29;100232.56;5116237;28;20059;-87
2024/02/28 06:12:13;;;;;;;16.00;9.18;;;;;;;13.46;95.70;100235.63;5116293;28;20047;-88
2024/02/28 06:15:18;;;;;;;17.17;9.82;;;;;;;13.37;96.49;100236.56;5116059;28;20050;-86
2024/02/28 06:18:26;;;;;;;16.70;9.20;;;;;;;13.38;96.60;100229.34;5116223;28;20054;-87
2024/02/28 06:21:31;;;;;;;18.90;9.05;;;;;;;13.16;97.26;100236.03;5116252;28;20489;-86
2024/02/28 06:24:35;;;;;;;18.20;9.52;;;;;;;13.12;97.75;100240.03;5113816;28;20501;-86
2024/02/28 06:27:40;;;;;;;17.42;9.15;;;;;;;13.07;97.76;100242.34;5103492;28;20051;-85
2024/02/28 06:30:47;;;;;;;16.45;8.98;;;;;;;13.43;96.27;100249.41;5114396;27;20054;-86
2024/02/28 06:33:52;;;;;;;18.52;8.60;;;;;;;13.24;96.12;100257.69;5115696;28;20066;-85
2024/02/28 06:36:56;;;;;;;16.58;8.25;;;;;;;13.29;96.86;100266.16;5115958;28;20050;-86
2024/02/28 06:40:04;;;;;;;15.15;7.97;;;;;;;13.51;95.10;100268.38;5115586;28;20043;-87
2024/02/28 06:43:08;;;;;;;13.93;9.15;;;;;;;13.44;95.50;100272.69;5115790;28;20055;-85
2024/02/28 06:46:13;;;;;;;13.98;7.70;;;;;;;13.52;94.96;100278.16;5115701;28;20047;-84
2024/02/28 06:49:17;;;;;;;19.55;8.40;;;;;;;13.46;94.76;100276.06;5115856;28;20051;-88
2024/02/28 06:52:22;;;;;;;19.48;8.38;;;;;;;13.54;94.42;100276.16;5115554;28;20387;-75
2024/02/28 06:55:27;;;;;;;23.88;13.50;;;;;;;13.54;94.39;100280.69;5114108;28;20058;-75
2024/02/28 06:58:31;;;;;;;18.20;9.02;;;;;;;13.31;95.47;100291.09;5115252;28;20398;-82
2024/02/28 07:01:36;;;;;;;15.32;9.45;;;;;;;13.78;93.71;100296.22;5115374;28;20390;-83
2024/02/28 07:04:42;;;;;;;16.35;8.85;;;;;;;13.80;93.74;100302.34;5115330;28;20386;-76
2024/02/28 07:07:47;;;;;;;14.30;8.35;;;;;;;13.58;95.19;100309.03;5094793;28;20067;-79
2024/02/28 07:10:53;;;;;;;16.00;8.43;;;;;;;13.68;94.42;100313.34;5095096;28;20051;-87
2024/02/28 07:14:01;;;;;;;17.15;8.80;;;;;;;14.20;92.35;100318.81;5104854;27;20404;-80
2024/02/28 07:17:06;;;;;;;20.92;9.15;;;;;;;14.05;92.54;100329.34;5114909;28;20422;-71
2024/02/28 07:20:12;;;;;;;19.30;9.55;;;;;;;13.40;96.05;100327.94;5114864;28;20367;-72
2024/02/28 07:23:16;;;;;;;22.33;10.38;;;;;;;13.69;95.35;100343.88;5114796;28;20047;-71
2024/02/28 07:26:21;;;;;;;18.80;9.63;;;;;;;13.44;95.75;100340.09;5113254;27;20036;-72
2024/02/28 07:29:26;;;;;;;22.85;10.73;;;;;;;13.68;95.44;100340.34;5106576;28;20055;-73
2024/02/28 07:32:34;;;;;;;20.92;11.27;;;;;;;13.77;94.76;100341.28;5108606;28;20044;-70
2024/02/28 07:35:52;;;;;;;17.92;10.05;;;;;;;13.57;95.41;100348.69;5108204;28;20044;-70
2024/02/28 07:38:57;;;;;;;19.13;10.38;;;;;;;13.44;95.87;100340.09;5096810;28;20039;-71
2024/02/28 07:42:02;;;;;;;20.30;10.70;;;;;;;13.40;96.11;100343.28;5114182;28;20044;-77
2024/02/28 07:45:08;;;;;;;18.70;9.55;;;;;;;13.70;94.24;100345.59;5112571;27;20043;-83
2024/02/28 07:48:13;;;;;;;16.10;9.70;;;;;;;13.63;94.25;100342.66;5105055;27;20580;-84
2024/02/28 07:51:17;;;;;;;15.20;7.65;;;;;;;13.46;95.49;100348.88;5101312;28;20046;-85
2024/02/28 07:54:22;;;;;;;15.10;7.72;;;;;;;13.87;93.97;100346.56;5112648;28;20054;-78
2024/02/28 07:57:27;;;;;;;17.83;7.68;;;;;;;13.90;93.92;100349.78;5105721;28;20501;-71
2024/02/28 08:00:35;;;;;;;15.60;7.72;;;;;;;13.96;93.75;100348.31;5106543;28;20036;-74
2024/02/28 08:03:40;;;;;;;9.82;6.03;;;;;;;14.17;93.01;100357.78;5099359;28;20513;-83
2024/02/28 08:06:44;;;;;;;10.60;6.28;;;;;;;14.22;93.18;100358.16;5100204;28;20067;-82
2024/02/28 08:09:49;;;;;;;12.40;5.82;;;;;;;14.14;93.68;100366.22;5104018;28;20406;-79
2024/02/28 08:12:54;;;;;;;14.80;6.88;;;;;;;14.24;93.40;100366.97;5103948;28;20053;-80
2024/02/28 08:15:58;;;;;;;12.68;7.60;;;;;;;14.32;92.89;100374.28;5106493;28;20051;-83
2024/02/28 08:19:03;;;;;;;12.00;7.82;;;;;;;14.18;93.55;100388.31;5108851;28;20058;-83
2024/02/28 08:22:10;;;;;;;13.98;7.57;;;;;;;13.87;94.82;100385.22;5113193;28;20509;-82
2024/02/28 08:25:16;;;;;;;13.85;8.18;;;;;;;14.16;93.79;100399.28;5111711;28;20063;-79
2024/02/28 08:28:21;;;;;;;13.88;8.60;;;;;;;14.27;93.24;100403.56;5111378;28;20047;-85
2024/02/28 08:31:25;;;;;;;13.10;7.40;;;;;;;14.60;92.62;100407.38;5111361;28;20569;-76
2024/02/28 08:34:30;;;;;;;12.32;7.18;;;;;;;14.12;93.11;100415.97;5111449;28;20043;-76
2024/02/28 08:37:34;;;;;;;14.43;7.95;;;;;;;14.18;93.21;100418.00;5116036;28;20591;-74
2024/02/28 08:40:39;;;;;;;12.65;6.72;;;;;;;14.24;93.21;100418.25;5092564;28;20051;-77
2024/02/28 08:43:44;;;;;;;12.52;7.10;;;;;;;14.21;93.44;100413.16;5101578;28;20050;-78
2024/02/28 08:46:48;;;;;;;14.23;7.35;;;;;;;14.17;93.02;100419.03;5114465;28;20406;-75
2024/02/28 08:49:53;;;;;;;13.82;7.90;;;;;;;14.21;93.34;100417.72;5117066;28;20074;-74
2024/02/28 08:52:58;;;;;;;13.90;7.93;;;;;;;14.33;93.07;100424.59;5117419;28;20058;-82
2024/02/28 08:56:04;;;;;;;39.50;25.13;;;;;;;14.49;92.53;100427.44;5117448;28;20051;-77
2024/02/28 08:59:09;;;;;;;25.63;13.35;;;;;;;14.41;92.52;100426.50;5093014;28;20048;-77
2024/02/28 09:02:14;;;;;;;18.48;8.68;;;;;;;14.36;93.66;100432.38;5101894;28;20036;-84
2024/02/28 09:05:18;;;;;;;19.50;9.48;;;;;;;14.63;91.81;100437.66;5116836;28;20063;-73
2024/02/28 09:08:23;;;;;;;19.00;8.82;;;;;;;14.30;93.01;100432.97;5117071;28;20058;-76
2024/02/28 09:11:28;;;;;;;19.67;9.05;;;;;;;14.27;93.01;100434.13;5116816;28;20529;-81
2024/02/28 09:14:33;;;;;;;22.50;10.55;;;;;;;14.70;92.55;100422.50;5104015;28;20046;-76
2024/02/28 09:17:38;;;;;;;23.90;8.82;;;;;;;14.49;93.25;100426.56;5104211;28;20475;-82
2024/02/28 09:20:43;;;;;;;18.67;8.40;;;;;;;14.59;92.58;100425.44;5114251;28;20110;-74
2024/02/28 09:23:47;;;;;;;11.50;7.25;;;;;;;14.68;92.72;100429.06;5115686;28;20047;-75
2024/02/28 09:26:51;;;;;;;17.17;8.63;;;;;;;14.71;93.08;100429.59;5116060;28;20058;-78
2024/02/28 09:29:56;;;;;;;17.98;8.77;;;;;;;14.78;92.38;100429.81;5115600;28;20055;-73
2024/02/28 09:33:00;;;;;;;21.33;9.43;;;;;;;14.53;94.06;100430.63;5116310;28;20051;-74
2024/02/28 09:36:05;;;;;;;16.52;8.93;;;;;;;14.59;93.78;100430.84;5115540;28;20047;-73
2024/02/28 09:39:09;;;;;;;16.25;8.30;;;;;;;14.85;93.00;100428.16;5116091;28;20062;-80
2024/02/28 09:42:15;;;;;;;15.30;7.65;;;;;;;14.97;92.09;100425.00;5114453;28;20402;-82
2024/02/28 09:45:21;;;;;;;16.80;8.45;;;;;;;14.84;92.24;100435.41;5116467;28;20050;-78
2024/02/28 09:48:29;;;;;;;12.63;7.43;;;;;;;14.94;92.60;100429.88;5115115;28;20062;-85
2024/02/28 09:51:35;;;;;;;17.30;7.72;;;;;;;15.09;91.55;100433.69;5131454;27;20062;-77
2024/02/28 09:54:41;;;;;;;16.58;6.32;;;;;;;14.91;93.18;100441.84;5136516;27;20074;-77
2024/02/28 09:57:48;;;;;;;19.00;8.07;;;;;;;14.77;93.13;100439.75;5135676;27;20062;-78
2024/02/28 10:00:59;;;;;;;18.40;7.40;;;;;;;14.75;93.46;100443.63;5136526;27;20046;-74
2024/02/28 10:04:04;;;;;;;14.35;7.30;;;;;;;14.82;93.17;100442.84;5136314;27;20043;-74
2024/02/28 10:07:13;;;;;;;15.57;7.65;;;;;;;14.81;92.94;100446.53;5109674;27;20062;-79
2024/02/28 10:10:19;;;;;;;14.40;8.70;;;;;;;15.19;92.14;100450.63;5095062;28;20537;-83
2024/02/28 10:13:24;;;;;;;12.45;7.53;;;;;;;14.95;93.43;100448.66;5095308;28;20043;-77
2024/02/28 10:16:29;;;;;;;15.50;6.97;;;;;;;15.12;92.41;100443.31;5083179;28;20079;-84
2024/02/28 10:19:34;;;;;;;13.27;7.00;;;;;;;15.18;92.65;100450.81;5095343;28;20059;-81
2024/02/28 10:22:39;;;;;;;12.75;6.45;;;;;;;15.37;91.50;100453.25;5082852;28;20062;-83
2024/02/28 10:25:45;;;;;;;15.23;7.05;;;;;;;15.24;92.27;100463.66;5095856;28;20066;-78
2024/02/28 10:28:51;;;;;;;11.80;7.20;;;;;;;15.06;92.75;100465.63;5095125;28;20051;-80
2024/02/28 10:31:56;;;;;;;13.68;7.05;;;;;;;15.13;92.70;100469.38;5094873;28;20074;-83
2024/02/28 10:35:01;;;;;;;12.55;8.48;;;;;;;15.19;93.00;100466.00;5094776;28;20051;-84
2024/02/28 10:38:06;;;;;;;13.27;7.93;;;;;;;15.20;93.03;100462.31;5094861;28;20506;-83
2024/02/28 10:41:13;;;;;;;12.77;7.00;;;;;;;15.49;91.85;100468.22;5095006;28;20051;-80
2024/02/28 10:44:18;;;;;;;13.00;7.90;;;;;;;15.78;90.70;100465.94;5081703;28;20051;-83
2024/02/28 10:47:23;;;;;;;15.07;8.68;;;;;;;15.82;91.36;100467.31;5094226;28;20063;-78
2024/02/28 10:50:28;;;;;;;12.23;7.90;;;;;;;15.70;91.31;100465.94;5087716;28;20059;-81
2024/02/28 10:53:41;;;;;;;14.90;8.15;;;;;;;15.92;90.87;100470.72;5074416;28;20052;-82
2024/02/28 10:56:46;;;;;;;12.93;8.00;;;;;;;16.24;89.28;100465.31;5073957;28;20055;-84
2024/02/28 10:59:51;;;;;;;13.35;6.97;;;;;;;16.45;89.58;100472.09;5074020;28;20052;-84
2024/02/28 11:02:58;;;;;;;11.50;7.82;;;;;;;15.98;88.67;100477.31;5074331;28;20063;-80
2024/02/28 11:06:02;;;;;;;12.70;8.23;;;;;;;16.06;89.36;100478.19;5075474;28;20052;-83
2024/02/28 11:09:11;;;;;;;10.68;7.63;;;;;;;16.25;88.82;100475.16;5064297;28;20055;-83
2024/02/28 11:12:29;;;;;;;12.43;8.13;;;;;;;15.75;90.34;100477.09;5078936;28;20395;-86
2024/02/28 11:15:35;;;;;;;12.52;7.57;;;;;;;15.54;91.49;100474.84;5075122;28;20499;-88
2024/02/28 11:18:49;;;;;;;12.02;8.88;;;;;;;15.52;91.78;100478.72;5061422;28;20518;-78
2024/02/28 11:21:55;;;;;;;11.88;7.82;;;;;;;15.63;91.74;100467.56;5073729;28;20048;-84
2024/02/28 11:24:59;;;;;;;10.65;7.85;;;;;;;15.95;90.66;100466.84;5061657;28;20055;-85
2024/02/28 11:28:05;;;;;;;10.10;7.47;;;;;;;16.01;90.23;100461.59;5073532;28;20055;-87
2024/02/28 11:31:09;;;;;;;10.43;6.90;;;;;;;16.10;89.87;100452.47;5073530;28;20063;-83
2024/02/28 11:34:14;;;;;;;9.82;7.30;;;;;;;16.22;89.84;100451.09;5074032;28;20043;-87
2024/02/28 11:37:18;;;;;;;9.45;6.47;;;;;;;16.26;90.14;100451.63;5073479;28;20039;-86
2024/02/28 11:40:25;;;;;;;9.48;6.22;;;;;;;16.05;90.84;100443.97;5073334;28;20055;-86
2024/02/28 11:43:34;;;;;;;10.05;6.47;;;;;;;15.88;91.45;100447.69;5073813;28;20051;-80
2024/02/28 11:46:43;;;;;;;8.82;6.45;;;;;;;16.13;90.71;100441.28;5073587;28;20376;-82
2024/02/28 11:49:49;;;;;;;9.48;6.88;;;;;;;15.96;91.22;100444.16;5060937;28;20056;-80
2024/02/28 11:52:53;;;;;;;9.70;6.35;;;;;;;15.83;91.68;100449.19;5073239;28;20163;-77
2024/02/28 11:55:58;;;;;;;10.25;6.47;;;;;;;15.67;92.30;100447.31;5073179;28;20047;-79
2024/02/28 11:59:04;;;;;;;8.30;6.45;;;;;;;15.59;92.86;100445.44;5073169;28;20048;-81
2024/02/28 12:02:13;;;;;;;7.50;6.28;;;;;;;15.36;93.81;100451.53;5060529;28;20059;-77
2024/02/28 12:05:20;;;;;;;8.88;6.80;;;;;;;15.39;93.70;100446.66;5072531;28;20048;-83
2024/02/28 12:08:26;;;;;;;7.40;6.60;;;;;;;15.39;93.92;100457.50;5072478;28;20391;-83
2024/02/28 12:11:31;;;;;;;7.22;6.13;;;;;;;15.55;93.45;100454.03;5072705;28;20079;-80
2024/02/28 12:14:39;;;;;;;7.03;6.32;;;;;;;15.96;91.14;100449.56;5090157;28;20421;-78
2024/02/28 12:17:45;;;;;;;10.35;6.72;;;;;;;15.87;91.40;100446.00;5110163;28;20165;-78
2024/02/28 12:20:50;;;;;;;9.13;7.25;;;;;;;15.80;91.88;100447.66;5109487;28;20063;-78
2024/02/28 12:23:56;;;;;;;9.23;7.32;;;;;;;15.85;91.75;100444.47;5091748;28;20062;-79
2024/02/28 12:27:01;;;;;;;8.52;6.90;;;;;;;15.69;92.47;100445.28;5090145;28;20047;-78
2024/02/28 12:30:06;;;;;;;8.93;7.00;;;;;;;15.73;92.60;100443.06;5091135;28;20407;-84
2024/02/28 12:33:11;;;;;;;9.52;7.50;;;;;;;15.78;92.45;100446.13;5093667;28;20055;-84
2024/02/28 12:36:15;;;;;;;7.63;6.70;;;;;;;15.73;92.78;100445.78;5080946;28;20058;-87
2024/02/28 12:39:20;;;;;;;7.45;6.50;;;;;;;15.79;93.08;100445.97;5093551;28;20043;-83
2024/02/28 12:42:24;;;;;;;6.93;6.22;;;;;;;15.94;92.56;100444.31;5093668;28;20055;-86
2024/02/28 12:45:31;;;;;;;6.93;5.60;;;;;;;15.89;92.86;100443.97;5093445;28;20529;-85
2024/02/28 12:48:40;;;;;;;7.15;5.32;;;;;;;15.87;92.83;100446.00;5093490;28;20055;-83
2024/02/28 12:51:46;;;;;;;5.50;4.70;;;;;;;15.75;93.75;100441.91;5110037;28;20051;-82
2024/02/28 12:54:51;;;;;;;6.32;3.53;;;;;;;15.63;94.77;100440.50;5113778;28;20050;-80
2024/02/28 12:57:56;;;;;;;4.97;3.22;;;;;;;15.36;95.09;100444.28;5113822;28;20058;-79
2024/02/28 13:01:00;;;;;;;6.15;3.40;;;;;;;15.28;96.48;100438.00;5113732;28;20335;-81
2024/02/28 13:04:05;;;;;;;5.93;3.42;;;;;;;15.08;98.01;100444.66;5113677;28;20055;-82
2024/02/28 13:07:10;;;;;;;7.55;3.00;;;;;;;15.06;97.70;100452.91;5101290;28;20043;-81
2024/02/28 13:10:14;;;;;;;4.05;2.20;;;;;;;14.99;98.32;100452.72;5113604;28;20054;-88
2024/02/28 13:13:18;;;;;;;10.27;4.43;;;;;;;15.10;97.86;100426.44;5100974;28;20402;-84
2024/02/28 13:16:23;;;;;;;4.18;2.17;;;;;;;15.18;97.31;100448.09;5113192;28;20047;-79
2024/02/28 13:19:28;;;;;;;6.47;3.90;;;;;;;15.15;97.59;100434.91;5101111;28;20390;-81
2024/02/28 13:22:32;;;;;;;6.88;3.08;;;;;;;15.26;98.05;100429.19;5111869;28;20402;-84
2024/02/28 13:25:37;;;;;;;9.23;2.80;;;;;;;15.36;97.50;100429.91;5113415;28;20051;-83
2024/02/28 13:28:42;;;;;;;6.97;3.03;;;;;;;15.48;96.76;100429.47;5113392;28;20070;-82
2024/02/28 13:31:47;;;;;;;4.80;2.45;;;;;;;15.44;97.35;100424.53;5100899;28;20055;-80
2024/02/28 13:34:51;;;;;;;6.40;2.70;;;;;;;15.56;95.76;100431.38;5104462;28;20051;-81
2024/02/28 13:37:59;;;;;;;3.30;2.00;;;;;;;15.44;97.48;100432.66;5116999;28;20062;-81
2024/02/28 13:41:04;;;;;;;9.10;3.60;;;;;;;15.80;95.40;100436.84;5104146;28;20051;-80
2024/02/28 13:44:09;;;;;;;4.05;2.60;;;;;;;15.63;96.11;100435.09;5117064;28;20505;-84
2024/02/28 13:47:14;;;;;;;7.30;3.30;;;;;;;15.65;95.82;100429.53;5117052;28;20050;-84
2024/02/28 13:50:18;;;;;;;8.23;2.75;;;;;;;15.46;96.82;100438.78;5116184;28;20051;-81
2024/02/28 13:53:24;;;;;;;6.72;2.90;;;;;;;15.62;96.20;100446.97;5115390;28;20051;-84
2024/02/28 13:56:30;;;;;;;6.32;4.20;;;;;;;15.61;96.04;100446.09;5116082;28;20046;-82
2024/02/28 13:59:35;;;;;;;5.10;3.25;;;;;;;15.54;96.77;100442.38;5103576;28;20047;-81
2024/02/28 14:02:39;;;;;;;5.25;3.60;;;;;;;15.71;95.78;100443.25;5115890;28;20043;-81
2024/02/28 14:05:45;;;;;;;5.72;3.10;;;;;;;15.63;95.26;100443.22;5113555;28;20047;-81
2024/02/28 14:08:52;;;;;;;6.97;2.83;;;;;;;15.48;96.18;100445.72;5115829;28;20051;-80
2024/02/28 14:11:57;;;;;;;5.55;2.97;;;;;;;15.46;96.31;100446.88;5115032;28;20059;-80